Time;durP1;ratioP1;P1;durP2;ratioP2;P2;SDS_P1;SDS_P2;PMS_P1;PMS_P2;Temp;Humidity;BMP_temperature;BMP_pressure;BME280_temperature;BME280_humidity;BME280_pressure;Samples;Min_cycle;Max_cycle;Signal;HPM_P1;HPM_P2
2022/11/24 00:01:11;;;;;;;12.68;6.53;;;6.20;99.90;;;;;;4994060;28;20480;-73
2022/11/24 00:03:37;;;;;;;12.35;7.25;;;6.20;99.90;;;;;;4994292;28;20524;-72
2022/11/24 00:06:14;;;;;;;13.38;6.90;;;6.20;99.90;;;;;;4986690;28;20392;-72
2022/11/24 00:08:43;;;;;;;13.07;7.15;;;6.20;99.90;;;;;;4986544;28;20062;-72
2022/11/24 00:11:12;;;;;;;13.65;6.78;;;6.30;99.90;;;;;;4977705;28;20111;-73
2022/11/24 00:13:38;;;;;;;13.15;6.75;;;6.30;99.90;;;;;;4994718;28;20105;-74
2022/11/24 00:16:11;;;;;;;10.25;6.22;;;6.30;99.90;;;;;;4993585;28;20081;-74
2022/11/24 00:18:39;;;;;;;11.57;6.50;;;6.30;99.90;;;;;;4980860;28;20034;-73
2022/11/24 00:21:06;;;;;;;11.18;5.75;;;6.30;99.90;;;;;;4989515;28;20062;-73
2022/11/24 00:23:32;;;;;;;10.18;6.30;;;6.30;99.90;;;;;;4986057;28;20506;-72
2022/11/24 00:26:25;;;;;;;13.68;7.25;;;6.30;99.90;;;;;;4992682;28;20038;-72
2022/11/24 00:28:53;;;;;;;11.13;6.63;;;6.30;99.90;;;;;;4975874;28;20081;-72
2022/11/24 00:31:28;;;;;;;15.23;7.38;;;6.30;99.90;;;;;;4990657;28;20038;-70
2022/11/24 00:33:57;;;;;;;11.02;6.22;;;6.40;99.90;;;;;;4984750;28;20030;-73
2022/11/24 00:36:25;;;;;;;13.13;7.07;;;6.40;99.90;;;;;;4978400;28;20509;-73
2022/11/24 00:38:59;;;;;;;10.52;6.00;;;6.40;99.90;;;;;;4988439;28;20030;-71
2022/11/24 00:41:26;;;;;;;10.32;6.07;;;6.30;99.90;;;;;;4986726;28;20109;-71
2022/11/24 00:43:52;;;;;;;13.27;6.88;;;6.30;99.90;;;;;;4985339;28;20588;-72
2022/11/24 00:46:18;;;;;;;11.65;6.18;;;6.30;99.90;;;;;;4992022;28;20491;-71
2022/11/24 00:48:45;;;;;;;13.55;6.82;;;6.30;99.90;;;;;;4988221;28;20022;-71
2022/11/24 00:51:13;;;;;;;12.68;5.97;;;6.30;99.90;;;;;;4992303;28;20552;-73
2022/11/24 00:53:40;;;;;;;13.48;6.90;;;6.30;99.90;;;;;;4992501;28;20014;-72
2022/11/24 00:56:06;;;;;;;11.13;6.65;;;6.30;99.90;;;;;;4989594;28;20058;-71
2022/11/24 00:58:33;;;;;;;11.93;6.75;;;6.30;99.90;;;;;;4992446;28;20108;-73
2022/11/24 01:01:07;;;;;;;11.27;6.57;;;6.30;99.90;;;;;;4992269;28;20129;-71
2022/11/24 01:03:33;;;;;;;10.65;7.05;;;6.30;99.90;;;;;;4989280;28;20030;-71
2022/11/24 01:06:07;;;;;;;12.75;7.00;;;6.30;99.90;;;;;;4992344;28;20018;-75
2022/11/24 01:08:35;;;;;;;20.48;7.88;;;6.30;99.90;;;;;;4988023;28;20019;-71
2022/11/24 01:11:20;;;;;;;13.32;6.95;;;6.30;99.90;;;;;;4991646;28;20026;-71
2022/11/24 01:13:50;;;;;;;15.57;7.88;;;6.30;99.90;;;;;;4991760;28;20053;-72
2022/11/24 01:16:19;;;;;;;12.50;6.72;;;6.30;99.90;;;;;;4989397;28;20481;-76
2022/11/24 01:18:46;;;;;;;12.73;6.70;;;6.30;99.90;;;;;;4983600;28;20074;-72
2022/11/24 01:21:12;;;;;;;13.90;7.95;;;6.30;99.90;;;;;;4987239;28;20042;-72
2022/11/24 01:23:38;;;;;;;14.55;8.77;;;6.30;99.90;;;;;;4991772;28;20049;-71
2022/11/24 01:26:06;;;;;;;14.95;8.50;;;6.30;99.90;;;;;;4991647;28;20053;-75
2022/11/24 01:28:32;;;;;;;19.50;8.52;;;6.40;99.90;;;;;;4991365;28;20101;-72
2022/11/24 01:31:03;;;;;;;16.52;7.53;;;6.40;99.90;;;;;;4991823;28;20034;-72
2022/11/24 01:33:29;;;;;;;12.50;8.13;;;6.40;99.90;;;;;;4991814;28;20027;-76
2022/11/24 01:35:57;;;;;;;15.48;8.63;;;6.40;99.90;;;;;;4991014;28;20533;-76
2022/11/24 01:38:24;;;;;;;15.35;8.38;;;6.40;99.90;;;;;;4990371;28;20093;-72
2022/11/24 01:40:59;;;;;;;15.48;7.93;;;6.40;99.90;;;;;;4991627;28;20045;-71
2022/11/24 01:43:25;;;;;;;14.13;7.60;;;6.40;99.90;;;;;;4991247;28;20473;-72
2022/11/24 01:45:50;;;;;;;15.70;8.68;;;6.40;99.90;;;;;;4991046;28;20102;-71
2022/11/24 01:48:39;;;;;;;14.70;8.18;;;6.40;99.90;;;;;;4987778;28;20023;-72
2022/11/24 01:51:12;;;;;;;14.43;7.22;;;6.50;99.90;;;;;;4991580;28;20476;-72
2022/11/24 01:53:41;;;;;;;17.67;8.80;;;6.40;99.90;;;;;;4991755;28;20050;-73
2022/11/24 01:56:07;;;;;;;12.50;7.18;;;6.50;99.90;;;;;;4991715;28;20038;-72
2022/11/24 01:58:34;;;;;;;13.30;7.30;;;6.40;99.90;;;;;;4989334;28;20054;-75
2022/11/24 02:01:00;;;;;;;12.18;6.75;;;6.50;99.90;;;;;;4974050;28;20089;-71
2022/11/24 02:03:32;;;;;;;12.05;7.38;;;6.50;99.90;;;;;;4987344;28;20109;-74
2022/11/24 02:06:10;;;;;;;11.47;6.63;;;6.50;99.90;;;;;;4989716;28;20034;-72
2022/11/24 02:08:57;;;;;;;10.38;6.13;;;6.50;99.90;;;;;;4991055;28;20256;-74
2022/11/24 02:11:26;;;;;;;13.80;6.85;;;6.50;99.90;;;;;;4976116;28;20121;-73
2022/11/24 02:13:53;;;;;;;11.43;6.15;;;6.50;99.90;;;;;;4986683;28;20117;-74
2022/11/24 02:16:19;;;;;;;10.45;5.78;;;6.50;99.90;;;;;;4992688;28;20019;-73
2022/11/24 02:18:46;;;;;;;11.02;6.57;;;6.50;99.90;;;;;;4992345;28;20033;-73
2022/11/24 02:21:14;;;;;;;12.57;6.40;;;6.50;99.90;;;;;;4990980;28;20515;-72
2022/11/24 02:23:58;;;;;;;13.57;7.13;;;6.50;99.90;;;;;;4980850;28;20110;-75
2022/11/24 02:26:44;;;;;;;12.95;7.05;;;6.40;99.90;;;;;;4991286;28;20109;-72
2022/11/24 02:29:14;;;;;;;13.38;7.25;;;6.40;99.90;;;;;;4981382;28;20039;-71
2022/11/24 02:31:55;;;;;;;12.50;7.07;;;6.50;99.90;;;;;;4973211;28;20035;-72
2022/11/24 02:34:20;;;;;;;13.02;6.93;;;6.40;99.90;;;;;;4990587;28;20034;-72
2022/11/24 02:36:46;;;;;;;12.95;6.72;;;6.50;99.90;;;;;;4981533;28;20029;-72
2022/11/24 02:39:14;;;;;;;14.27;7.85;;;6.40;99.90;;;;;;4985427;28;20493;-74
2022/11/24 02:41:47;;;;;;;11.77;6.50;;;6.40;99.90;;;;;;4979518;28;20066;-73
2022/11/24 02:44:16;;;;;;;13.40;7.82;;;6.40;99.90;;;;;;4978371;28;20038;-71
2022/11/24 02:46:42;;;;;;;14.18;7.45;;;6.40;99.90;;;;;;4981860;28;20030;-71
2022/11/24 02:49:08;;;;;;;13.50;8.00;;;6.30;99.90;;;;;;4978992;28;20029;-73
2022/11/24 02:51:34;;;;;;;14.25;7.55;;;6.30;99.90;;;;;;4983238;28;20489;-72
2022/11/24 02:54:03;;;;;;;14.70;7.13;;;6.40;99.90;;;;;;4984488;28;20111;-71
2022/11/24 02:56:28;;;;;;;15.00;7.70;;;6.40;99.90;;;;;;4990573;28;20023;-71
2022/11/24 02:58:54;;;;;;;12.60;7.25;;;6.40;99.90;;;;;;4986576;28;20481;-72
2022/11/24 03:01:20;;;;;;;15.48;8.23;;;6.40;99.90;;;;;;4990847;28;20038;-71
2022/11/24 03:03:46;;;;;;;12.07;6.18;;;6.40;99.90;;;;;;4990982;28;20072;-71
2022/11/24 03:06:11;;;;;;;13.02;6.63;;;6.40;99.90;;;;;;4990763;28;20058;-72
2022/11/24 03:08:37;;;;;;;12.18;7.35;;;6.40;99.90;;;;;;4986562;28;20114;-72
2022/11/24 03:11:03;;;;;;;15.38;6.18;;;6.50;99.90;;;;;;4986177;28;20034;-73
2022/11/24 03:13:29;;;;;;;10.90;6.47;;;6.50;99.90;;;;;;4990170;28;20026;-74
2022/11/24 03:15:55;;;;;;;9.93;5.78;;;6.50;99.90;;;;;;4990801;28;20062;-71
2022/11/24 03:18:20;;;;;;;13.18;7.35;;;6.50;99.90;;;;;;4986503;28;20470;-70
2022/11/24 03:20:46;;;;;;;10.85;6.25;;;6.50;99.90;;;;;;4990253;28;20034;-71
2022/11/24 03:23:12;;;;;;;11.13;5.80;;;6.40;99.90;;;;;;4990494;28;20038;-71
2022/11/24 03:25:38;;;;;;;11.68;6.45;;;6.40;99.90;;;;;;4990554;28;20681;-72
2022/11/24 03:28:05;;;;;;;9.75;5.75;;;6.40;99.90;;;;;;4990313;28;20081;-71
2022/11/24 03:30:30;;;;;;;10.30;6.03;;;6.40;99.90;;;;;;4989029;28;20074;-71
2022/11/24 03:32:56;;;;;;;14.27;5.75;;;6.40;99.90;;;;;;4989791;28;20034;-71
2022/11/24 03:35:22;;;;;;;12.50;4.97;;;6.40;99.90;;;;;;4989836;28;20030;-71
2022/11/24 03:37:48;;;;;;;10.32;5.75;;;6.40;99.90;;;;;;4989946;28;20027;-72
2022/11/24 03:40:14;;;;;;;9.57;5.68;;;6.30;99.90;;;;;;4986807;28;20039;-72
2022/11/24 03:42:40;;;;;;;11.02;5.95;;;6.30;99.90;;;;;;4983223;28;20035;-71
2022/11/24 03:45:06;;;;;;;11.75;4.97;;;6.20;99.90;;;;;;4988739;28;20475;-72
2022/11/24 03:47:32;;;;;;;11.02;6.40;;;6.20;99.90;;;;;;4990178;28;20041;-72
2022/11/24 03:49:58;;;;;;;13.73;6.65;;;6.20;99.90;;;;;;4990509;28;20026;-71
2022/11/24 03:52:25;;;;;;;11.77;6.22;;;6.10;99.90;;;;;;4992902;28;20026;-71
2022/11/24 03:54:52;;;;;;;11.27;5.78;;;6.10;99.90;;;;;;4990218;28;20031;-71
2022/11/24 03:57:18;;;;;;;13.68;6.65;;;6.10;99.90;;;;;;4989926;28;20584;-72
2022/11/24 03:59:44;;;;;;;13.80;6.53;;;6.10;99.90;;;;;;4993159;28;20153;-72
2022/11/24 04:02:09;;;;;;;13.25;6.55;;;6.10;99.90;;;;;;4992210;28;20030;-71
2022/11/24 04:04:35;;;;;;;10.77;6.05;;;6.10;99.90;;;;;;4989013;28;20031;-71
2022/11/24 04:07:01;;;;;;;12.05;6.65;;;6.00;99.90;;;;;;4989699;28;20477;-72
2022/11/24 04:09:27;;;;;;;13.05;6.57;;;6.00;99.90;;;;;;4990231;28;20397;-73
2022/11/24 04:14:37;;;;;;;15.43;7.80;;;6.00;99.90;;;;;;4993384;28;20030;-71
2022/11/24 04:17:03;;;;;;;13.98;7.80;;;5.90;99.90;;;;;;4993310;28;20388;-72
2022/11/24 04:19:29;;;;;;;14.35;8.13;;;5.90;99.90;;;;;;4988871;28;20116;-71
2022/11/24 04:21:55;;;;;;;16.90;8.90;;;5.90;99.90;;;;;;4991929;28;20034;-72
2022/11/24 04:24:24;;;;;;;14.63;8.55;;;5.90;99.90;;;;;;4991384;28;20035;-72
2022/11/24 04:26:50;;;;;;;18.02;9.98;;;6.00;99.90;;;;;;4988691;28;20111;-72
2022/11/24 04:29:15;;;;;;;16.38;8.70;;;6.00;99.90;;;;;;4993146;28;20029;-71
2022/11/24 04:31:41;;;;;;;14.80;7.80;;;5.90;99.90;;;;;;4992404;28;20235;-72
2022/11/24 04:34:09;;;;;;;15.65;8.90;;;5.90;99.90;;;;;;4990619;28;20054;-72
2022/11/24 04:36:35;;;;;;;18.23;8.60;;;5.90;99.90;;;;;;4989147;28;20030;-71
2022/11/24 04:39:01;;;;;;;19.23;9.63;;;5.90;99.90;;;;;;4992774;28;20389;-72
2022/11/24 04:41:26;;;;;;;18.55;9.55;;;5.90;99.90;;;;;;4992571;28;20777;-72
2022/11/24 04:43:52;;;;;;;17.65;9.43;;;5.90;99.90;;;;;;4992230;28;20081;-72
2022/11/24 04:46:18;;;;;;;17.33;9.88;;;5.90;99.90;;;;;;4985142;28;20023;-71
2022/11/24 04:48:44;;;;;;;23.73;12.85;;;5.90;99.90;;;;;;4978150;28;20034;-71
2022/11/24 04:51:12;;;;;;;20.25;11.73;;;5.90;99.90;;;;;;4978767;28;20019;-71
2022/11/24 04:53:38;;;;;;;23.17;10.82;;;5.90;99.90;;;;;;4979292;28;20493;-74
2022/11/24 04:56:05;;;;;;;17.45;9.85;;;5.90;99.90;;;;;;4980871;28;20057;-72
2022/11/24 04:58:31;;;;;;;20.10;11.40;;;5.90;99.90;;;;;;4978378;28;20045;-70
2022/11/24 05:00:56;;;;;;;17.90;10.40;;;5.90;99.90;;;;;;4983383;28;20030;-72
2022/11/24 05:03:22;;;;;;;17.67;9.32;;;5.90;99.90;;;;;;4988601;28;20034;-71
2022/11/24 05:05:48;;;;;;;15.10;8.20;;;5.90;99.90;;;;;;4990687;28;20461;-72
2022/11/24 05:08:14;;;;;;;18.77;10.02;;;6.00;99.90;;;;;;4990851;28;20025;-71
2022/11/24 05:10:41;;;;;;;15.35;9.43;;;6.00;99.90;;;;;;4991055;28;20023;-71
2022/11/24 05:13:12;;;;;;;16.45;9.35;;;6.00;99.90;;;;;;4990458;28;20088;-71
2022/11/24 05:15:39;;;;;;;20.35;10.30;;;6.00;99.90;;;;;;4988073;28;20029;-72
2022/11/24 05:18:13;;;;;;;14.13;8.75;;;6.10;99.90;;;;;;5002393;28;20023;-73
2022/11/24 05:20:39;;;;;;;22.92;12.60;;;6.00;99.90;;;;;;4963942;28;20042;-71
2022/11/24 05:23:07;;;;;;;20.75;11.20;;;6.00;99.90;;;;;;4989484;28;20081;-73
2022/11/24 05:25:34;;;;;;;21.27;11.93;;;6.00;99.90;;;;;;4988572;28;20042;-75
2022/11/24 05:28:01;;;;;;;19.80;10.55;;;6.00;99.90;;;;;;4989573;28;20105;-72
2022/11/24 05:30:27;;;;;;;22.50;11.77;;;6.00;99.90;;;;;;4989931;28;20069;-72
2022/11/24 05:32:53;;;;;;;20.40;11.70;;;6.00;99.90;;;;;;4989632;28;20042;-72
2022/11/24 05:35:20;;;;;;;20.88;12.00;;;6.00;99.90;;;;;;4987175;28;20042;-72
2022/11/24 05:37:46;;;;;;;19.10;10.95;;;6.00;99.90;;;;;;4991400;28;20125;-72
2022/11/24 05:40:12;;;;;;;18.27;10.60;;;6.00;99.90;;;;;;4991910;28;20034;-72
2022/11/24 05:42:41;;;;;;;17.95;10.02;;;6.00;99.90;;;;;;4991485;28;20523;-73
2022/11/24 05:45:14;;;;;;;21.27;11.43;;;5.90;99.90;;;;;;4990988;28;20058;-72
2022/11/24 05:47:41;;;;;;;19.75;10.73;;;5.90;99.90;;;;;;4987612;28;20109;-72
2022/11/24 05:50:09;;;;;;;22.70;11.63;;;6.00;99.90;;;;;;4987355;28;20550;-71
2022/11/24 05:52:35;;;;;;;19.25;10.93;;;5.90;99.90;;;;;;4991496;28;20022;-72
2022/11/24 05:55:01;;;;;;;27.92;17.08;;;5.90;99.90;;;;;;4991274;28;20060;-73
2022/11/24 05:57:27;;;;;;;30.25;17.25;;;5.90;99.90;;;;;;4991095;28;20077;-73
2022/11/24 05:59:53;;;;;;;34.08;20.70;;;5.90;99.90;;;;;;4990830;28;20038;-73
2022/11/24 06:02:19;;;;;;;31.13;20.20;;;5.90;99.90;;;;;;4991526;28;20149;-72
2022/11/24 06:04:45;;;;;;;40.78;24.45;;;5.90;99.90;;;;;;4991422;28;20081;-72
2022/11/24 06:07:11;;;;;;;30.77;19.50;;;5.90;99.90;;;;;;4990714;28;20030;-73
2022/11/24 06:09:38;;;;;;;25.60;17.42;;;5.90;99.90;;;;;;4991082;28;20015;-72
2022/11/24 06:12:09;;;;;;;22.90;15.48;;;5.90;99.90;;;;;;4986224;28;20057;-72
2022/11/24 06:14:35;;;;;;;27.80;16.05;;;6.00;99.90;;;;;;4990118;28;20034;-72
2022/11/24 06:17:02;;;;;;;26.63;14.10;;;6.00;99.90;;;;;;4990947;28;20045;-75
2022/11/24 06:19:28;;;;;;;24.05;14.05;;;6.00;99.90;;;;;;4991067;28;20524;-73
2022/11/24 06:21:54;;;;;;;22.70;12.75;;;6.00;99.90;;;;;;4987826;28;20162;-71
2022/11/24 06:24:20;;;;;;;21.67;11.68;;;6.00;99.90;;;;;;4989733;28;20511;-73
2022/11/24 06:26:46;;;;;;;19.35;11.02;;;6.10;99.90;;;;;;4986457;28;20083;-72
2022/11/24 06:29:12;;;;;;;20.02;10.38;;;6.10;99.90;;;;;;4991448;28;20061;-73
2022/11/24 06:31:37;;;;;;;18.65;9.35;;;6.10;99.90;;;;;;4990558;28;20018;-73
2022/11/24 06:34:10;;;;;;;18.40;9.23;;;6.20;99.90;;;;;;4990917;28;20034;-74
2022/11/24 06:36:37;;;;;;;18.63;9.50;;;6.20;99.90;;;;;;4986207;28;20105;-73
2022/11/24 06:39:05;;;;;;;19.67;9.13;;;6.20;99.90;;;;;;4984013;28;20038;-72
2022/11/24 06:41:31;;;;;;;13.48;8.32;;;6.30;99.90;;;;;;4987403;28;20034;-72
2022/11/24 06:43:57;;;;;;;16.55;8.40;;;6.30;99.90;;;;;;4990782;28;20105;-72
2022/11/24 06:46:23;;;;;;;15.48;8.60;;;6.30;99.90;;;;;;4990672;28;20457;-74
2022/11/24 06:48:52;;;;;;;15.43;8.60;;;6.30;99.90;;;;;;4990718;28;20040;-72
2022/11/24 06:51:18;;;;;;;16.95;9.35;;;6.40;99.90;;;;;;4990462;28;20109;-73
2022/11/24 06:53:44;;;;;;;13.85;7.95;;;6.40;99.90;;;;;;4990378;28;20018;-72
2022/11/24 06:56:12;;;;;;;15.73;8.73;;;6.50;99.90;;;;;;4990472;28;20030;-74
2022/11/24 06:58:43;;;;;;;17.52;9.40;;;6.50;99.90;;;;;;4990927;28;20014;-72
2022/11/24 07:01:17;;;;;;;14.55;8.63;;;6.50;99.90;;;;;;4986596;28;20493;-73
2022/11/24 07:03:44;;;;;;;18.95;10.15;;;6.60;99.90;;;;;;4986189;28;20439;-73
2022/11/24 07:06:09;;;;;;;17.17;9.38;;;6.60;99.90;;;;;;4990502;28;20030;-71
2022/11/24 07:08:35;;;;;;;18.65;9.38;;;6.70;99.90;;;;;;4986547;28;20330;-72
2022/11/24 07:11:10;;;;;;;18.42;8.80;;;6.70;99.90;;;;;;4990487;28;20049;-72
2022/11/24 07:13:35;;;;;;;17.88;9.02;;;6.70;99.90;;;;;;4986448;28;20077;-71
2022/11/24 07:16:22;;;;;;;16.23;8.73;;;6.80;99.90;;;;;;4990286;28;20540;-73
2022/11/24 07:18:52;;;;;;;15.50;7.57;;;6.90;99.90;;;;;;4987470;28;20512;-72
2022/11/24 07:21:20;;;;;;;13.85;7.35;;;6.90;99.90;;;;;;4990670;28;20039;-72
2022/11/24 07:23:50;;;;;;;14.82;7.55;;;6.90;99.90;;;;;;4990288;28;20018;-73
2022/11/24 07:26:16;;;;;;;16.10;7.05;;;6.90;99.90;;;;;;4991648;28;20022;-73
2022/11/24 07:28:42;;;;;;;15.90;7.07;;;7.00;99.90;;;;;;4993227;28;20046;-72
2022/11/24 07:31:14;;;;;;;14.27;6.70;;;7.00;99.90;;;;;;4993828;28;20507;-73
2022/11/24 07:33:40;;;;;;;16.63;8.15;;;7.10;99.90;;;;;;4986854;28;20030;-72
2022/11/24 07:36:07;;;;;;;18.33;8.02;;;7.10;99.90;;;;;;4993473;28;20496;-73
2022/11/24 07:38:33;;;;;;;13.60;7.20;;;7.10;99.90;;;;;;4990291;28;20031;-73
2022/11/24 07:41:08;;;;;;;16.00;8.52;;;7.20;99.90;;;;;;4984841;28;20396;-74
2022/11/24 07:43:35;;;;;;;12.80;6.78;;;7.20;99.90;;;;;;4981044;28;20045;-73
2022/11/24 07:46:02;;;;;;;13.40;7.30;;;7.20;99.90;;;;;;4990799;28;20031;-73
2022/11/24 07:48:28;;;;;;;13.50;7.00;;;7.20;99.90;;;;;;4977535;28;20027;-73
2022/11/24 07:50:57;;;;;;;11.52;6.00;;;7.30;99.90;;;;;;4994929;28;20492;-74
2022/11/24 07:53:23;;;;;;;14.52;6.72;;;7.20;99.90;;;;;;4993943;28;20436;-73
2022/11/24 07:55:54;;;;;;;10.50;6.22;;;7.20;99.90;;;;;;4974745;28;20130;-73
2022/11/24 07:58:20;;;;;;;12.30;6.32;;;7.20;99.90;;;;;;4976064;28;20027;-73
2022/11/24 08:00:46;;;;;;;11.38;6.13;;;7.20;99.90;;;;;;4992794;28;20113;-73
2022/11/24 08:03:12;;;;;;;11.88;6.38;;;7.30;99.90;;;;;;4993202;28;20537;-73
2022/11/24 08:05:38;;;;;;;13.95;7.15;;;7.30;99.90;;;;;;4993326;28;20034;-74
2022/11/24 08:08:03;;;;;;;11.57;6.90;;;7.30;99.90;;;;;;4984006;28;20049;-73
2022/11/24 08:10:29;;;;;;;11.40;6.20;;;7.30;99.90;;;;;;4994397;28;20125;-74
2022/11/24 08:12:59;;;;;;;10.98;6.20;;;7.40;99.90;;;;;;4991790;28;20014;-72
2022/11/24 08:15:26;;;;;;;11.25;5.63;;;7.40;99.90;;;;;;4989375;28;20035;-73
2022/11/24 08:17:51;;;;;;;12.15;6.53;;;7.40;99.90;;;;;;4980613;28;20073;-74
2022/11/24 08:20:17;;;;;;;11.65;6.35;;;7.40;99.90;;;;;;4984806;28;20030;-73
2022/11/24 08:22:43;;;;;;;12.45;6.35;;;7.50;99.90;;;;;;4993878;28;20030;-73
2022/11/24 08:25:13;;;;;;;11.88;6.65;;;7.50;99.90;;;;;;4992659;28;20029;-72
2022/11/24 08:27:39;;;;;;;17.35;6.57;;;7.50;99.90;;;;;;4990657;28;20050;-75
2022/11/24 08:30:06;;;;;;;11.77;6.45;;;7.50;99.90;;;;;;4988920;28;20041;-73
2022/11/24 08:32:31;;;;;;;12.38;6.95;;;7.50;99.90;;;;;;4984352;28;20465;-73
2022/11/24 08:34:57;;;;;;;14.60;6.90;;;7.60;99.90;;;;;;4991653;28;20114;-73
2022/11/24 08:37:25;;;;;;;14.18;7.43;;;7.50;99.90;;;;;;4983610;28;20073;-75
2022/11/24 08:39:51;;;;;;;14.05;7.63;;;7.60;99.90;;;;;;4989863;28;20030;-73
2022/11/24 08:42:17;;;;;;;14.15;7.63;;;7.60;99.90;;;;;;4994060;28;20030;-74
2022/11/24 08:44:42;;;;;;;13.98;8.43;;;7.60;99.90;;;;;;4983074;28;20052;-74
2022/11/24 08:47:08;;;;;;;16.33;8.45;;;7.70;99.90;;;;;;4989076;28;20397;-73
2022/11/24 08:49:34;;;;;;;15.40;8.35;;;7.70;99.90;;;;;;4974415;28;20030;-74
2022/11/24 08:52:00;;;;;;;13.68;7.90;;;7.70;99.90;;;;;;4990777;28;20092;-74
2022/11/24 08:54:26;;;;;;;13.70;8.23;;;7.80;99.90;;;;;;4992666;28;20125;-73
2022/11/24 08:56:52;;;;;;;12.75;7.05;;;7.80;99.90;;;;;;4979385;28;20030;-74
2022/11/24 08:59:18;;;;;;;14.40;6.78;;;7.80;99.90;;;;;;4982848;28;20042;-73
2022/11/24 09:01:44;;;;;;;15.50;6.65;;;7.90;99.90;;;;;;4993375;28;20035;-74
2022/11/24 09:04:10;;;;;;;9.82;5.70;;;7.90;99.90;;;;;;4993672;28;20117;-74
2022/11/24 09:06:35;;;;;;;11.35;6.20;;;8.00;99.90;;;;;;4993208;28;20495;-74
2022/11/24 09:09:01;;;;;;;12.85;6.45;;;8.00;99.90;;;;;;4991739;28;20045;-74
2022/11/24 09:11:27;;;;;;;15.65;7.28;;;8.10;99.90;;;;;;4986116;28;20031;-74
2022/11/24 09:13:54;;;;;;;17.90;7.68;;;8.10;99.90;;;;;;4981200;28;20041;-73
2022/11/24 09:16:22;;;;;;;18.73;9.80;;;8.20;99.90;;;;;;4992277;28;20030;-74
2022/11/24 09:18:55;;;;;;;15.80;8.65;;;8.20;99.90;;;;;;4990997;28;20029;-74
2022/11/24 09:21:22;;;;;;;11.77;5.65;;;8.30;99.90;;;;;;4991782;28;20088;-73
2022/11/24 09:23:49;;;;;;;11.98;5.85;;;8.30;99.90;;;;;;4991375;28;20022;-74
2022/11/24 09:26:19;;;;;;;12.77;6.60;;;8.30;99.90;;;;;;4976292;28;20027;-74
2022/11/24 09:28:45;;;;;;;10.77;5.88;;;8.30;99.90;;;;;;4986766;28;20481;-74
2022/11/24 09:31:14;;;;;;;13.80;6.55;;;8.40;99.90;;;;;;4993015;28;20038;-74
2022/11/24 09:33:40;;;;;;;12.15;5.75;;;8.50;99.90;;;;;;4986647;28;20023;-73
2022/11/24 09:36:07;;;;;;;14.45;6.82;;;8.50;99.90;;;;;;4990070;28;20030;-73
2022/11/24 09:38:32;;;;;;;11.65;6.55;;;8.50;99.90;;;;;;4984258;28;20027;-73
2022/11/24 09:41:10;;;;;;;13.02;6.88;;;8.60;99.90;;;;;;4988435;28;20101;-74
2022/11/24 09:44:14;;;;;;;12.20;7.00;;;8.60;99.90;;;;;;4992547;28;20396;-73
2022/11/24 09:46:43;;;;;;;12.88;6.22;;;8.70;99.90;;;;;;4932082;29;20043;-73
2022/11/24 09:49:16;;;;;;;13.52;6.53;;;8.70;99.90;;;;;;4930795;29;20111;-73
2022/11/24 09:51:46;;;;;;;13.40;7.05;;;8.80;99.90;;;;;;4926135;28;20071;-74
2022/11/24 09:54:25;;;;;;;14.18;7.78;;;8.90;99.90;;;;;;4932171;29;20036;-74
2022/11/24 09:56:51;;;;;;;14.73;7.82;;;8.90;99.90;;;;;;4932009;29;20039;-72
2022/11/24 09:59:22;;;;;;;17.10;8.45;;;8.90;99.90;;;;;;4932129;29;20109;-74
2022/11/24 10:01:50;;;;;;;13.65;8.10;;;8.90;99.90;;;;;;4931712;29;20047;-74
2022/11/24 10:04:35;;;;;;;21.73;12.88;;;9.00;99.90;;;;;;4931896;29;20072;-73
2022/11/24 10:07:22;;;;;;;13.80;7.38;;;9.00;99.90;;;;;;4930832;29;20024;-73
2022/11/24 10:10:03;;;;;;;14.07;6.70;;;9.00;99.90;;;;;;4923460;29;20875;-73
2022/11/24 10:12:43;;;;;;;11.80;6.82;;;9.10;99.90;;;;;;4931471;29;20115;-73
2022/11/24 10:15:29;;;;;;;13.75;7.35;;;9.10;99.90;;;;;;4911917;29;20040;-72
2022/11/24 10:18:20;;;;;;;15.23;7.97;;;9.20;99.90;;;;;;4915718;29;20043;-72
2022/11/24 10:21:17;;;;;;;14.95;7.63;;;9.30;99.90;;;;;;4930891;29;20126;-73
2022/11/24 10:23:43;;;;;;;14.52;7.32;;;9.30;99.90;;;;;;4962017;28;20046;-73
2022/11/24 10:26:17;;;;;;;13.65;7.05;;;9.40;99.90;;;;;;4990722;28;20061;-72
2022/11/24 10:28:52;;;;;;;11.93;6.47;;;9.40;99.90;;;;;;4983020;28;20444;-73
2022/11/24 10:31:34;;;;;;;11.60;6.90;;;9.40;99.90;;;;;;4991014;28;20027;-73
2022/11/24 10:34:22;;;;;;;14.10;7.25;;;9.40;99.90;;;;;;4989071;28;20015;-73
2022/11/24 10:37:03;;;;;;;13.95;7.72;;;9.50;99.90;;;;;;4981007;28;20551;-74
2022/11/24 10:39:40;;;;;;;15.05;8.10;;;9.60;99.90;;;;;;4974467;28;20023;-73
2022/11/24 10:42:22;;;;;;;13.48;7.03;;;9.50;99.90;;;;;;4983238;28;20060;-73
2022/11/24 10:45:02;;;;;;;13.32;6.93;;;9.50;99.90;;;;;;4977356;28;20026;-73
2022/11/24 10:47:29;;;;;;;11.02;6.63;;;9.60;99.90;;;;;;4972014;28;20023;-73
2022/11/24 10:50:03;;;;;;;12.65;7.03;;;9.70;99.90;;;;;;4989318;28;20031;-72
2022/11/24 10:52:35;;;;;;;11.98;5.95;;;9.80;99.90;;;;;;4989715;28;20077;-73
2022/11/24 10:55:04;;;;;;;12.55;7.35;;;9.80;99.90;;;;;;4982345;28;20077;-74
2022/11/24 10:57:34;;;;;;;13.98;7.32;;;9.90;99.90;;;;;;4979196;28;20094;-74
2022/11/24 11:00:22;;;;;;;12.93;6.25;;;10.00;99.90;;;;;;4982856;28;20089;-73
2022/11/24 11:02:50;;;;;;;12.23;6.43;;;10.00;99.90;;;;;;4982116;28;20054;-73
2022/11/24 11:05:31;;;;;;;12.95;7.15;;;10.10;99.90;;;;;;4984904;28;20062;-74
2022/11/24 11:08:18;;;;;;;12.65;5.70;;;10.10;99.90;;;;;;4975009;28;20042;-74
2022/11/24 11:10:45;;;;;;;15.85;7.07;;;10.20;99.90;;;;;;4978528;28;20034;-73
2022/11/24 11:13:21;;;;;;;7.15;3.38;;;10.20;99.90;;;;;;4986352;28;20041;-74
2022/11/24 11:15:47;;;;;;;6.63;3.40;;;10.20;99.90;;;;;;4989498;28;20033;-73
2022/11/24 11:18:17;;;;;;;8.02;3.97;;;10.20;99.90;;;;;;4985145;28;20065;-74
2022/11/24 11:20:57;;;;;;;4.70;3.13;;;10.20;99.90;;;;;;4987823;28;20046;-73
2022/11/24 11:23:27;;;;;;;5.47;3.25;;;10.20;99.90;;;;;;4981841;28;20093;-73
2022/11/24 11:26:18;;;;;;;4.03;2.88;;;10.30;99.90;;;;;;4988629;28;20030;-74
2022/11/24 11:29:14;;;;;;;3.70;2.53;;;10.40;99.90;;;;;;4993490;28;20062;-74
2022/11/24 11:31:40;;;;;;;4.50;2.53;;;10.50;99.90;;;;;;4987406;28;20069;-74
2022/11/24 11:34:09;;;;;;;5.80;3.15;;;10.50;99.90;;;;;;4989922;28;20026;-73
2022/11/24 11:36:53;;;;;;;7.15;2.40;;;10.40;99.90;;;;;;4993003;28;20030;-74
2022/11/24 11:39:33;;;;;;;7.18;2.83;;;10.30;99.90;;;;;;4993976;28;20077;-74
2022/11/24 11:42:27;;;;;;;6.57;2.92;;;10.20;99.90;;;;;;4994129;28;20497;-74
2022/11/24 11:45:02;;;;;;;5.95;2.55;;;10.10;99.90;;;;;;4994145;28;20026;-76
2022/11/24 11:48:00;;;;;;;4.20;2.13;;;10.10;99.90;;;;;;4993898;28;20027;-74
2022/11/24 11:50:39;;;;;;;5.35;2.70;;;10.00;99.90;;;;;;4994166;28;20030;-74
2022/11/24 11:53:20;;;;;;;4.15;2.40;;;10.00;99.90;;;;;;4993630;28;20093;-73
2022/11/24 11:56:00;;;;;;;6.20;3.13;;;10.00;99.90;;;;;;4993819;28;20026;-74
2022/11/24 11:58:54;;;;;;;6.85;2.70;;;10.00;99.90;;;;;;4983531;28;20026;-75
2022/11/24 12:01:19;;;;;;;5.57;2.90;;;10.00;99.90;;;;;;4981780;28;20536;-76
2022/11/24 12:04:23;;;;;;;11.38;4.53;;;10.00;99.90;;;;;;4978509;28;20027;-74
2022/11/24 12:06:49;;;;;;;9.25;4.63;;;10.10;99.90;;;;;;4992651;28;20445;-75
2022/11/24 12:09:23;;;;;;;5.97;3.63;;;10.00;99.90;;;;;;4992517;28;20018;-74
2022/11/24 12:11:58;;;;;;;7.65;3.55;;;10.20;99.90;;;;;;4991795;28;20118;-72
2022/11/24 12:14:38;;;;;;;7.78;3.88;;;10.30;99.90;;;;;;4992339;28;20080;-73
2022/11/24 12:17:17;;;;;;;6.10;3.53;;;10.40;99.90;;;;;;4987407;28;20396;-74
2022/11/24 12:19:53;;;;;;;8.18;3.78;;;10.50;99.90;;;;;;4989101;28;20387;-74
2022/11/24 12:22:46;;;;;;;9.05;4.55;;;10.50;99.90;;;;;;4988510;28;20389;-74
2022/11/24 12:25:27;;;;;;;10.75;3.90;;;10.60;99.90;;;;;;4993154;28;20026;-74
2022/11/24 12:28:17;;;;;;;9.85;4.13;;;10.60;99.90;;;;;;4989613;28;20055;-75
2022/11/24 12:31:14;;;;;;;7.93;3.90;;;10.60;99.90;;;;;;4987716;28;20576;-74
2022/11/24 12:33:58;;;;;;;8.00;3.28;;;10.60;99.90;;;;;;4984617;28;20030;-75
2022/11/24 12:36:45;;;;;;;7.72;3.88;;;10.70;99.90;;;;;;4984134;28;20030;-74
2022/11/24 12:39:47;;;;;;;6.90;3.28;;;10.80;99.90;;;;;;4984914;28;20105;-75
2022/11/24 12:42:34;;;;;;;3.83;2.47;;;10.80;99.90;;;;;;4969818;28;20469;-75
2022/11/24 12:45:11;;;;;;;5.53;2.50;;;10.90;99.90;;;;;;4960104;28;20537;-75
2022/11/24 12:47:37;;;;;;;6.78;3.10;;;10.90;99.90;;;;;;4969003;28;20576;-74
2022/11/24 12:50:11;;;;;;;10.23;4.90;;;10.90;99.90;;;;;;4966399;28;20039;-74
2022/11/24 12:52:45;;;;;;;6.15;2.97;;;10.80;99.90;;;;;;4965116;28;20532;-75
2022/11/24 12:55:19;;;;;;;6.50;2.90;;;10.90;99.90;;;;;;4965169;28;20081;-75
2022/11/24 12:57:58;;;;;;;7.90;2.97;;;10.80;99.90;;;;;;4965962;28;20023;-75
2022/11/24 13:00:57;;;;;;;6.85;3.63;;;10.80;99.90;;;;;;4961386;28;20552;-74
2022/11/24 13:03:47;;;;;;;8.25;3.97;;;10.80;99.90;;;;;;4961048;28;20179;-76
2022/11/24 13:06:27;;;;;;;8.93;4.05;;;11.00;99.90;;;;;;4962110;28;20074;-75